< < Back
Terminal Aerodrome Forecast


Current Version              Previous Versions:   1  2  3  4  5  6  7  8  9  

Terminal Aerodrome Forecast

028
FTUS44 KOHX 291720
TAFCSV
TAF
KCSV 291720Z 2918/3018 18010KT P6SM VCSH SCT025 BKN060
     FM300000 16002KT P6SM SCT080 BKN150
     FM300900 00000KT 5SM BR BKN150
     FM301300 18007KT P6SM VCSH SCT025 BKN060=

Latest METAR

174
SAUS70 KWBC 300100 RRJ
MTRCSV
METAR KCSV 300053Z AUTO 00000KT 10SM CLR 23/19 A3017 RMK AO2 SLP195
T02330189


USA.gov is the U.S. government's official web portal to all federal, state and local government web resources and services.